sensor_id;sensor_type;location;lat;lon;timestamp;pressure;altitude;pressure_sealevel;temperature;humidity
68807;BME280;55800;54.272;18.558;2023-05-16T00:00:01;99639.28;;;14.19;58.12
68807;BME280;55800;54.272;18.558;2023-05-16T00:02:54;99640.22;;;14.18;57.96
68807;BME280;55800;54.272;18.558;2023-05-16T00:05:24;99635.72;;;14.18;57.93
68807;BME280;55800;54.272;18.558;2023-05-16T00:07:53;99640.22;;;14.18;58.03
68807;BME280;55800;54.272;18.558;2023-05-16T00:10:22;99639.34;;;14.17;57.99
68807;BME280;55800;54.272;18.558;2023-05-16T00:12:51;99636.78;;;14.16;58.02
68807;BME280;55800;54.272;18.558;2023-05-16T00:15:20;99637.84;;;14.13;58.11
68807;BME280;55800;54.272;18.558;2023-05-16T00:17:50;99637.00;;;14.13;58.27
68807;BME280;55800;54.272;18.558;2023-05-16T00:20:21;99631.63;;;14.13;58.63
68807;BME280;55800;54.272;18.558;2023-05-16T00:22:51;99638.94;;;14.10;58.17
68807;BME280;55800;54.272;18.558;2023-05-16T00:25:20;99626.47;;;14.09;58.21
68807;BME280;55800;54.272;18.558;2023-05-16T00:27:49;99631.00;;;14.09;58.85
68807;BME280;55800;54.272;18.558;2023-05-16T00:30:18;99629.38;;;14.06;58.07
68807;BME280;55800;54.272;18.558;2023-05-16T00:32:47;99629.38;;;14.06;58.04
68807;BME280;55800;54.272;18.558;2023-05-16T00:35:17;99632.06;;;14.06;57.99
68807;BME280;55800;54.272;18.558;2023-05-16T00:37:47;99628.63;;;14.04;58.62
68807;BME280;55800;54.272;18.558;2023-05-16T00:40:16;99630.34;;;14.05;58.32
68807;BME280;55800;54.272;18.558;2023-05-16T00:42:45;99626.94;;;14.03;58.00
68807;BME280;55800;54.272;18.558;2023-05-16T00:45:14;99630.44;;;14.04;58.16
68807;BME280;55800;54.272;18.558;2023-05-16T00:47:43;99626.06;;;14.03;57.83
68807;BME280;55800;54.272;18.558;2023-05-16T00:50:12;99628.75;;;14.03;57.78
68807;BME280;55800;54.272;18.558;2023-05-16T00:52:41;99624.31;;;14.02;57.86
68807;BME280;55800;54.272;18.558;2023-05-16T00:55:12;99626.19;;;14.01;57.97
68807;BME280;55800;54.272;18.558;2023-05-16T00:57:41;99628.00;;;14.01;57.88
68807;BME280;55800;54.272;18.558;2023-05-16T01:00:10;99621.63;;;14.02;58.14
68807;BME280;55800;54.272;18.558;2023-05-16T01:02:41;99631.63;;;14.00;58.32
68807;BME280;55800;54.272;18.558;2023-05-16T01:05:11;99624.69;;;13.97;57.95
68807;BME280;55800;54.272;18.558;2023-05-16T01:07:40;99630.06;;;13.97;58.13
68807;BME280;55800;54.272;18.558;2023-05-16T01:10:09;99633.69;;;13.96;58.06
68807;BME280;55800;54.272;18.558;2023-05-16T01:12:43;99627.38;;;13.97;58.05
68807;BME280;55800;54.272;18.558;2023-05-16T01:15:14;99631.00;;;13.96;58.21
68807;BME280;55800;54.272;18.558;2023-05-16T01:17:49;99627.44;;;13.96;58.44
68807;BME280;55800;54.272;18.558;2023-05-16T01:20:26;99632.84;;;13.96;58.55
68807;BME280;55800;54.272;18.558;2023-05-16T01:23:11;99632.94;;;13.94;58.61
68807;BME280;55800;54.272;18.558;2023-05-16T01:25:56;99625.84;;;13.93;58.48
68807;BME280;55800;54.272;18.558;2023-05-16T01:28:27;99632.19;;;14.05;59.67
68807;BME280;55800;54.272;18.558;2023-05-16T01:30:56;99635.44;;;13.97;59.97
68807;BME280;55800;54.272;18.558;2023-05-16T01:33:25;99634.78;;;13.94;60.82
68807;BME280;55800;54.272;18.558;2023-05-16T01:35:56;99633.91;;;13.93;59.66
68807;BME280;55800;54.272;18.558;2023-05-16T01:38:29;99640.47;;;13.89;59.01
68807;BME280;55800;54.272;18.558;2023-05-16T01:41:01;99635.31;;;13.86;58.76
68807;BME280;55800;54.272;18.558;2023-05-16T01:43:34;99639.63;;;13.89;60.34
68807;BME280;55800;54.272;18.558;2023-05-16T01:46:13;99638.97;;;13.85;59.48
68807;BME280;55800;54.272;18.558;2023-05-16T01:48:43;99642.41;;;13.87;59.87
68807;BME280;55800;54.272;18.558;2023-05-16T01:51:15;99628.97;;;13.87;60.13
68807;BME280;55800;54.272;18.558;2023-05-16T01:53:44;99633.59;;;13.85;58.92
68807;BME280;55800;54.272;18.558;2023-05-16T01:56:14;99635.53;;;13.83;59.08
68807;BME280;55800;54.272;18.558;2023-05-16T01:58:45;99638.09;;;13.85;58.67
68807;BME280;55800;54.272;18.558;2023-05-16T02:01:16;99632.63;;;13.86;59.53
68807;BME280;55800;54.272;18.558;2023-05-16T02:03:45;99637.16;;;13.86;58.82
68807;BME280;55800;54.272;18.558;2023-05-16T02:06:14;99630.16;;;13.83;58.60
68807;BME280;55800;54.272;18.558;2023-05-16T02:08:43;99631.97;;;13.83;58.95
68807;BME280;55800;54.272;18.558;2023-05-16T02:11:12;99635.53;;;13.83;58.68
68807;BME280;55800;54.272;18.558;2023-05-16T02:13:41;99638.22;;;13.83;58.67
68807;BME280;55800;54.272;18.558;2023-05-16T02:16:12;99636.59;;;13.81;58.56
68807;BME280;55800;54.272;18.558;2023-05-16T02:18:41;99636.72;;;13.79;58.73
68807;BME280;55800;54.272;18.558;2023-05-16T02:21:11;99647.56;;;13.78;58.84
68807;BME280;55800;54.272;18.558;2023-05-16T02:23:40;99644.16;;;13.76;58.64
68807;BME280;55800;54.272;18.558;2023-05-16T02:26:09;99651.34;;;13.75;58.86
68807;BME280;55800;54.272;18.558;2023-05-16T02:28:39;99650.34;;;13.76;59.29
68807;BME280;55800;54.272;18.558;2023-05-16T02:34:03;99647.66;;;13.76;59.42
68807;BME280;55800;54.272;18.558;2023-05-16T02:36:33;99646.81;;;13.76;59.61
68807;BME280;55800;54.272;18.558;2023-05-16T02:39:03;99653.16;;;13.75;59.41
68807;BME280;55800;54.272;18.558;2023-05-16T02:41:32;99655.84;;;13.75;60.01
68807;BME280;55800;54.272;18.558;2023-05-16T02:44:01;99653.28;;;13.73;59.28
68807;BME280;55800;54.272;18.558;2023-05-16T02:46:32;99648.84;;;13.72;59.17
68807;BME280;55800;54.272;18.558;2023-05-16T02:49:04;99645.22;;;13.73;59.44
68807;BME280;55800;54.272;18.558;2023-05-16T02:51:34;99650.59;;;13.73;59.50
68807;BME280;55800;54.272;18.558;2023-05-16T02:54:03;99643.47;;;13.72;59.74
68807;BME280;55800;54.272;18.558;2023-05-16T02:56:32;99650.59;;;13.73;59.56
68807;BME280;55800;54.272;18.558;2023-05-16T02:59:01;99641.78;;;13.71;61.18
68807;BME280;55800;54.272;18.558;2023-05-16T03:01:30;99643.47;;;13.72;59.61
68807;BME280;55800;54.272;18.558;2023-05-16T03:03:59;99657.88;;;13.71;59.41
68807;BME280;55800;54.272;18.558;2023-05-16T03:06:31;99649.72;;;13.73;59.52
68807;BME280;55800;54.272;18.558;2023-05-16T03:09:00;99655.97;;;13.73;59.50
68807;BME280;55800;54.272;18.558;2023-05-16T03:11:29;99648.84;;;13.72;59.37
68807;BME280;55800;54.272;18.558;2023-05-16T03:13:58;99654.78;;;13.77;61.37
68807;BME280;55800;54.272;18.558;2023-05-16T03:16:28;99658.41;;;13.76;61.28
68807;BME280;55800;54.272;18.558;2023-05-16T03:18:58;99669.94;;;13.78;62.08
68807;BME280;55800;54.272;18.558;2023-05-16T03:21:27;99666.69;;;13.73;60.48
68807;BME280;55800;54.272;18.558;2023-05-16T03:23:57;99670.34;;;13.72;60.70
68807;BME280;55800;54.272;18.558;2023-05-16T03:26:29;99674.66;;;13.75;63.34
68807;BME280;55800;54.272;18.558;2023-05-16T03:28:58;99668.00;;;13.80;62.57
68807;BME280;55800;54.272;18.558;2023-05-16T03:31:27;99670.47;;;13.83;63.30
68807;BME280;55800;54.272;18.558;2023-05-16T03:33:56;99665.19;;;13.82;62.77
68807;BME280;55800;54.272;18.558;2023-05-16T03:36:25;99673.38;;;13.80;63.39
68807;BME280;55800;54.272;18.558;2023-05-16T03:38:54;99676.25;;;13.77;64.51
68807;BME280;55800;54.272;18.558;2023-05-16T03:41:25;99677.75;;;13.81;65.89
68807;BME280;55800;54.272;18.558;2023-05-16T03:43:54;99673.38;;;13.80;65.57
68807;BME280;55800;54.272;18.558;2023-05-16T03:46:23;99682.81;;;13.86;67.16
68807;BME280;55800;54.272;18.558;2023-05-16T03:48:52;99684.31;;;13.90;67.07
68807;BME280;55800;54.272;18.558;2023-05-16T03:51:21;99681.75;;;13.88;66.55
68807;BME280;55800;54.272;18.558;2023-05-16T03:53:50;99685.63;;;13.84;67.20
68807;BME280;55800;54.272;18.558;2023-05-16T03:56:19;99687.56;;;13.82;68.03
68807;BME280;55800;54.272;18.558;2023-05-16T03:58:50;99696.13;;;13.75;68.49
68807;BME280;55800;54.272;18.558;2023-05-16T04:01:19;99696.56;;;13.69;68.08
68807;BME280;55800;54.272;18.558;2023-05-16T04:03:49;99701.06;;;13.68;68.82
68807;BME280;55800;54.272;18.558;2023-05-16T04:06:18;99703.31;;;13.62;69.21
68807;BME280;55800;54.272;18.558;2023-05-16T04:08:48;99710.72;;;13.58;68.83
68807;BME280;55800;54.272;18.558;2023-05-16T04:11:17;99712.03;;;13.53;69.05
68807;BME280;55800;54.272;18.558;2023-05-16T04:13:46;99712.84;;;13.53;68.76
68807;BME280;55800;54.272;18.558;2023-05-16T04:16:16;99712.66;;;13.56;67.82
68807;BME280;55800;54.272;18.558;2023-05-16T04:18:45;99714.59;;;13.54;68.56
68807;BME280;55800;54.272;18.558;2023-05-16T04:21:15;99724.03;;;13.47;68.86
68807;BME280;55800;54.272;18.558;2023-05-16T04:23:43;99723.06;;;13.48;68.31
68807;BME280;55800;54.272;18.558;2023-05-16T04:26:13;99725.00;;;13.46;68.05
68807;BME280;55800;54.272;18.558;2023-05-16T04:28:42;99721.13;;;13.38;68.48
68807;BME280;55800;54.272;18.558;2023-05-16T04:31:11;99725.91;;;13.32;69.42
68807;BME280;55800;54.272;18.558;2023-05-16T04:33:42;99727.44;;;13.37;68.88
68807;BME280;55800;54.272;18.558;2023-05-16T04:36:11;99726.56;;;13.36;69.23
68807;BME280;55800;54.272;18.558;2023-05-16T04:38:40;99727.34;;;13.38;68.92
68807;BME280;55800;54.272;18.558;2023-05-16T04:41:09;99733.84;;;13.34;68.55
68807;BME280;55800;54.272;18.558;2023-05-16T04:43:38;99739.91;;;13.38;68.56
68807;BME280;55800;54.272;18.558;2023-05-16T04:46:08;99739.78;;;13.39;69.51
68807;BME280;55800;54.272;18.558;2023-05-16T04:48:38;99747.50;;;13.31;70.23
68807;BME280;55800;54.272;18.558;2023-05-16T04:51:08;99745.00;;;13.28;70.17
68807;BME280;55800;54.272;18.558;2023-05-16T04:53:38;99746.94;;;13.26;70.01
68807;BME280;55800;54.272;18.558;2023-05-16T04:56:07;99753.47;;;13.22;69.88
68807;BME280;55800;54.272;18.558;2023-05-16T04:58:36;99747.25;;;13.21;70.21
68807;BME280;55800;54.272;18.558;2023-05-16T05:01:08;99754.66;;;13.18;70.14
68807;BME280;55800;54.272;18.558;2023-05-16T05:03:37;99761.75;;;13.19;70.11
68807;BME280;55800;54.272;18.558;2023-05-16T05:06:06;99762.69;;;13.18;69.89
68807;BME280;55800;54.272;18.558;2023-05-16T05:08:37;99762.69;;;13.18;70.04
68807;BME280;55800;54.272;18.558;2023-05-16T05:11:06;99765.19;;;13.21;69.90
68807;BME280;55800;54.272;18.558;2023-05-16T05:13:35;99763.34;;;13.21;68.93
68807;BME280;55800;54.272;18.558;2023-05-16T05:16:04;99761.53;;;13.22;70.16
68807;BME280;55800;54.272;18.558;2023-05-16T05:18:33;99764.50;;;13.17;69.91
68807;BME280;55800;54.272;18.558;2023-05-16T05:21:02;99765.28;;;13.19;70.12
68807;BME280;55800;54.272;18.558;2023-05-16T05:23:31;99774.59;;;13.14;70.43
68807;BME280;55800;54.272;18.558;2023-05-16T05:26:03;99771.81;;;13.15;70.41
68807;BME280;55800;54.272;18.558;2023-05-16T05:28:32;99774.38;;;13.17;70.92
68807;BME280;55800;54.272;18.558;2023-05-16T05:31:01;99776.53;;;13.12;70.73
68807;BME280;55800;54.272;18.558;2023-05-16T05:33:31;99780.56;;;13.05;71.46
68807;BME280;55800;54.272;18.558;2023-05-16T05:36:00;99773.38;;;13.05;70.69
68807;BME280;55800;54.272;18.558;2023-05-16T05:38:30;99775.94;;;13.07;70.83
68807;BME280;55800;54.272;18.558;2023-05-16T05:40:59;99778.81;;;13.04;71.33
68807;BME280;55800;54.272;18.558;2023-05-16T05:43:30;99780.94;;;12.99;71.74
68807;BME280;55800;54.272;18.558;2023-05-16T05:45:59;99787.66;;;12.92;72.22
68807;BME280;55800;54.272;18.558;2023-05-16T05:48:28;99801.06;;;12.92;71.67
68807;BME280;55800;54.272;18.558;2023-05-16T05:50:59;99802.03;;;12.91;72.06
68807;BME280;55800;54.272;18.558;2023-05-16T05:53:28;99809.22;;;12.90;72.23
68807;BME280;55800;54.272;18.558;2023-05-16T05:55:57;99811.19;;;13.01;70.79
68807;BME280;55800;54.272;18.558;2023-05-16T05:58:26;99819.16;;;13.02;71.46
68807;BME280;55800;54.272;18.558;2023-05-16T06:00:56;99827.31;;;13.01;71.46
68807;BME280;55800;54.272;18.558;2023-05-16T06:03:25;99823.56;;;13.03;71.69
68807;BME280;55800;54.272;18.558;2023-05-16T06:05:55;99827.31;;;13.01;72.00
68807;BME280;55800;54.272;18.558;2023-05-16T06:08:24;99843.16;;;13.05;71.86
68807;BME280;55800;54.272;18.558;2023-05-16T06:10:53;99858.38;;;13.05;72.06
68807;BME280;55800;54.272;18.558;2023-05-16T06:13:22;99858.63;;;13.00;72.57
68807;BME280;55800;54.272;18.558;2023-05-16T06:15:51;99861.59;;;12.96;72.63
68807;BME280;55800;54.272;18.558;2023-05-16T06:18:21;99869.66;;;12.96;72.84
68807;BME280;55800;54.272;18.558;2023-05-16T06:20:51;99873.41;;;12.93;72.89
68807;BME280;55800;54.272;18.558;2023-05-16T06:23:20;99879.63;;;12.94;72.95
68807;BME280;55800;54.272;18.558;2023-05-16T06:25:49;99885.00;;;12.94;72.68
68807;BME280;55800;54.272;18.558;2023-05-16T06:28:18;99882.69;;;12.88;73.22
68807;BME280;55800;54.272;18.558;2023-05-16T06:30:47;99894.09;;;12.77;73.67
68807;BME280;55800;54.272;18.558;2023-05-16T06:33:18;99901.66;;;12.71;74.16
68807;BME280;55800;54.272;18.558;2023-05-16T06:35:48;99901.28;;;12.77;73.13
68807;BME280;55800;54.272;18.558;2023-05-16T06:38:18;99916.59;;;12.75;74.10
68807;BME280;55800;54.272;18.558;2023-05-16T06:40:47;99915.56;;;12.77;73.91
68807;BME280;55800;54.272;18.558;2023-05-16T06:43:17;99924.66;;;12.75;73.93
68807;BME280;55800;54.272;18.558;2023-05-16T06:45:46;99930.13;;;12.73;74.07
68807;BME280;55800;54.272;18.558;2023-05-16T06:48:16;99927.44;;;12.73;74.25
68807;BME280;55800;54.272;18.558;2023-05-16T06:50:46;99931.00;;;12.74;74.25
68807;BME280;55800;54.272;18.558;2023-05-16T06:53:16;99938.00;;;12.76;73.56
68807;BME280;55800;54.272;18.558;2023-05-16T06:55:46;99945.00;;;12.79;74.26
68807;BME280;55800;54.272;18.558;2023-05-16T06:58:15;99955.63;;;12.80;74.72
68807;BME280;55800;54.272;18.558;2023-05-16T07:00:44;99969.53;;;12.87;74.43
68807;BME280;55800;54.272;18.558;2023-05-16T07:03:13;99968.47;;;12.89;74.32
68807;BME280;55800;54.272;18.558;2023-05-16T07:05:42;99972.97;;;12.89;74.10
68807;BME280;55800;54.272;18.558;2023-05-16T07:08:11;99979.59;;;12.97;74.24
68807;BME280;55800;54.272;18.558;2023-05-16T07:10:42;99982.94;;;13.01;73.94
68807;BME280;55800;54.272;18.558;2023-05-16T07:13:10;99986.59;;;13.00;73.77
68807;BME280;55800;54.272;18.558;2023-05-16T07:15:40;99996.44;;;12.99;74.26
68807;BME280;55800;54.272;18.558;2023-05-16T07:18:08;100004.22;;;13.04;73.98
68807;BME280;55800;54.272;18.558;2023-05-16T07:20:38;100007.50;;;13.09;73.59
68807;BME280;55800;54.272;18.558;2023-05-16T07:23:07;100015.91;;;13.03;73.73
68807;BME280;55800;54.272;18.558;2023-05-16T07:25:36;100024.75;;;13.05;73.53
68807;BME280;55800;54.272;18.558;2023-05-16T07:28:06;100033.19;;;13.13;73.11
68807;BME280;55800;54.272;18.558;2023-05-16T07:30:36;100042.00;;;13.15;72.80
68807;BME280;55800;54.272;18.558;2023-05-16T07:33:04;100048.63;;;13.23;72.82
68807;BME280;55800;54.272;18.558;2023-05-16T07:35:34;100043.75;;;13.30;72.44
68807;BME280;55800;54.272;18.558;2023-05-16T07:38:03;100065.94;;;13.34;72.40
68807;BME280;55800;54.272;18.558;2023-05-16T07:40:32;100074.06;;;13.32;72.51
68807;BME280;55800;54.272;18.558;2023-05-16T07:43:01;100073.50;;;13.27;72.59
68807;BME280;55800;54.272;18.558;2023-05-16T07:45:32;100080.56;;;13.28;72.46
68807;BME280;55800;54.272;18.558;2023-05-16T07:48:01;100086.63;;;13.32;71.82
68807;BME280;55800;54.272;18.558;2023-05-16T07:50:30;100094.19;;;13.39;71.92
68807;BME280;55800;54.272;18.558;2023-05-16T07:52:59;100099.19;;;13.31;72.24
68807;BME280;55800;54.272;18.558;2023-05-16T07:55:28;100105.22;;;13.35;72.01
68807;BME280;55800;54.272;18.558;2023-05-16T07:57:57;100116.66;;;13.38;71.41
68807;BME280;55800;54.272;18.558;2023-05-16T08:00:26;100119.34;;;13.38;72.04
68807;BME280;55800;54.272;18.558;2023-05-16T08:02:57;100135.16;;;13.43;72.08
68807;BME280;55800;54.272;18.558;2023-05-16T08:05:27;100140.44;;;13.44;71.93
68807;BME280;55800;54.272;18.558;2023-05-16T08:07:56;100152.03;;;13.45;72.14
68807;BME280;55800;54.272;18.558;2023-05-16T08:10:25;100141.97;;;13.48;71.83
68807;BME280;55800;54.272;18.558;2023-05-16T08:12:54;100138.31;;;13.49;72.08
68807;BME280;55800;54.272;18.558;2023-05-16T08:15:23;100151.56;;;13.52;72.16
68807;BME280;55800;54.272;18.558;2023-05-16T08:17:53;100156.75;;;13.55;72.11
68807;BME280;55800;54.272;18.558;2023-05-16T08:20:24;100154.53;;;13.62;71.64
68807;BME280;55800;54.272;18.558;2023-05-16T08:22:53;100161.38;;;13.67;71.41
68807;BME280;55800;54.272;18.558;2023-05-16T08:25:22;100160.41;;;13.68;71.83
68807;BME280;55800;54.272;18.558;2023-05-16T08:27:52;100170.22;;;13.69;72.14
68807;BME280;55800;54.272;18.558;2023-05-16T08:30:21;100171.75;;;13.73;71.91
68807;BME280;55800;54.272;18.558;2023-05-16T08:32:50;100174.91;;;13.80;71.76
68807;BME280;55800;54.272;18.558;2023-05-16T08:35:19;100180.09;;;13.83;72.23
68807;BME280;55800;54.272;18.558;2023-05-16T08:37:49;100194.97;;;13.88;72.06
68807;BME280;55800;54.272;18.558;2023-05-16T08:40:19;100197.28;;;13.94;72.48
68807;BME280;55800;54.272;18.558;2023-05-16T08:42:48;100206.78;;;14.00;72.56
68807;BME280;55800;54.272;18.558;2023-05-16T08:45:17;100218.41;;;14.00;72.47
68807;BME280;55800;54.272;18.558;2023-05-16T08:47:47;100216.31;;;14.05;72.36
68807;BME280;55800;54.272;18.558;2023-05-16T08:50:18;100225.69;;;14.13;72.00
68807;BME280;55800;54.272;18.558;2023-05-16T08:52:47;100223.69;;;14.16;72.01
68807;BME280;55800;54.272;18.558;2023-05-16T08:55:20;100230.72;;;14.19;71.29
68807;BME280;55800;54.272;18.558;2023-05-16T08:57:50;100232.78;;;14.28;71.46
68807;BME280;55800;54.272;18.558;2023-05-16T09:00:19;100234.56;;;14.29;71.35
68807;BME280;55800;54.272;18.558;2023-05-16T09:02:49;100242.06;;;14.38;71.09
68807;BME280;55800;54.272;18.558;2023-05-16T09:05:19;100238.59;;;14.50;70.64
68807;BME280;55800;54.272;18.558;2023-05-16T09:07:47;100247.69;;;14.61;70.66
68807;BME280;55800;54.272;18.558;2023-05-16T09:10:17;100241.81;;;14.69;70.74
68807;BME280;55800;54.272;18.558;2023-05-16T09:12:47;100248.22;;;14.80;70.81
68807;BME280;55800;54.272;18.558;2023-05-16T09:15:17;100253.25;;;14.87;70.00
68807;BME280;55800;54.272;18.558;2023-05-16T09:17:46;100262.13;;;15.01;69.91
68807;BME280;55800;54.272;18.558;2023-05-16T09:20:16;100259.78;;;15.09;69.51
68807;BME280;55800;54.272;18.558;2023-05-16T09:22:49;100252.66;;;15.08;68.59
68807;BME280;55800;54.272;18.558;2023-05-16T09:25:20;100264.50;;;15.06;68.62
68807;BME280;55800;54.272;18.558;2023-05-16T09:27:59;100264.31;;;15.09;68.74
68807;BME280;55800;54.272;18.558;2023-05-16T09:30:30;100271.72;;;15.05;68.32
68807;BME280;55800;54.272;18.558;2023-05-16T09:33:00;100286.50;;;15.12;68.45
68807;BME280;55800;54.272;18.558;2023-05-16T09:35:30;100286.13;;;15.18;68.08
68807;BME280;55800;54.272;18.558;2023-05-16T09:38:02;100290.53;;;15.19;67.72
68807;BME280;55800;54.272;18.558;2023-05-16T09:40:31;100300.13;;;15.23;67.92
68807;BME280;55800;54.272;18.558;2023-05-16T09:43:02;100313.94;;;15.31;67.62
68807;BME280;55800;54.272;18.558;2023-05-16T09:45:33;100324.53;;;15.34;67.20
68807;BME280;55800;54.272;18.558;2023-05-16T09:48:03;100322.59;;;15.36;66.88
68807;BME280;55800;54.272;18.558;2023-05-16T09:50:34;100313.75;;;15.34;66.72
68807;BME280;55800;54.272;18.558;2023-05-16T09:53:03;100326.75;;;15.28;67.07
68807;BME280;55800;54.272;18.558;2023-05-16T09:55:33;100338.22;;;15.17;66.99
68807;BME280;55800;54.272;18.558;2023-05-16T09:58:03;100340.34;;;15.12;66.79
68807;BME280;55800;54.272;18.558;2023-05-16T10:00:33;100344.78;;;15.13;67.08
68807;BME280;55800;54.272;18.558;2023-05-16T10:03:02;100346.50;;;15.14;66.66
68807;BME280;55800;54.272;18.558;2023-05-16T10:05:33;100348.94;;;15.05;67.23
68807;BME280;55800;54.272;18.558;2023-05-16T10:08:02;100362.69;;;15.00;67.48
68807;BME280;55800;54.272;18.558;2023-05-16T10:10:33;100353.75;;;15.00;67.51
68807;BME280;55800;54.272;18.558;2023-05-16T10:13:05;100346.34;;;15.03;67.82
68807;BME280;55800;54.272;18.558;2023-05-16T10:15:35;100340.47;;;15.11;68.12
68807;BME280;55800;54.272;18.558;2023-05-16T10:18:05;100336.59;;;15.15;68.05
68807;BME280;55800;54.272;18.558;2023-05-16T10:20:39;100332.25;;;15.26;67.78
68807;BME280;55800;54.272;18.558;2023-05-16T10:23:09;100336.66;;;15.41;67.92
68807;BME280;55800;54.272;18.558;2023-05-16T10:25:43;100330.47;;;15.53;67.51
68807;BME280;55800;54.272;18.558;2023-05-16T10:28:14;100337.81;;;15.64;67.08
68807;BME280;55800;54.272;18.558;2023-05-16T10:30:44;100332.66;;;15.74;66.61
68807;BME280;55800;54.272;18.558;2023-05-16T10:33:14;100339.59;;;15.78;66.39
68807;BME280;55800;54.272;18.558;2023-05-16T10:35:44;100332.06;;;15.83;66.33
68807;BME280;55800;54.272;18.558;2023-05-16T10:38:14;100329.31;;;15.97;66.19
68807;BME280;55800;54.272;18.558;2023-05-16T10:40:44;100329.97;;;16.13;65.90
68807;BME280;55800;54.272;18.558;2023-05-16T10:43:23;100334.16;;;16.17;65.67
68807;BME280;55800;54.272;18.558;2023-05-16T10:45:53;100331.47;;;16.29;65.38
68807;BME280;55800;54.272;18.558;2023-05-16T10:48:29;100322.63;;;16.40;65.63
68807;BME280;55800;54.272;18.558;2023-05-16T10:50:59;100332.59;;;16.52;65.24
68807;BME280;55800;54.272;18.558;2023-05-16T10:53:29;100336.91;;;16.55;64.14
68807;BME280;55800;54.272;18.558;2023-05-16T10:56:06;100343.81;;;16.59;64.16
68807;BME280;55800;54.272;18.558;2023-05-16T10:58:41;100343.94;;;16.57;63.47
68807;BME280;55800;54.272;18.558;2023-05-16T11:01:14;100344.91;;;16.56;63.42
68807;BME280;55800;54.272;18.558;2023-05-16T11:03:59;100355.03;;;16.65;63.87
68807;BME280;55800;54.272;18.558;2023-05-16T11:06:30;100353.19;;;16.78;63.47
68807;BME280;55800;54.272;18.558;2023-05-16T11:09:06;100359.66;;;16.88;63.50
68807;BME280;55800;54.272;18.558;2023-05-16T11:11:37;100366.03;;;17.00;63.32
68807;BME280;55800;54.272;18.558;2023-05-16T11:14:08;100372.72;;;17.07;62.59
68807;BME280;55800;54.272;18.558;2023-05-16T11:16:38;100364.06;;;17.14;61.83
68807;BME280;55800;54.272;18.558;2023-05-16T11:19:07;100375.50;;;17.18;61.89
68807;BME280;55800;54.272;18.558;2023-05-16T11:24:27;100393.13;;;17.11;61.53
68807;BME280;55800;54.272;18.558;2023-05-16T11:26:57;100396.81;;;16.97;61.13
68807;BME280;55800;54.272;18.558;2023-05-16T11:29:28;100400.16;;;16.88;61.32
68807;BME280;55800;54.272;18.558;2023-05-16T11:31:59;100407.19;;;16.91;61.62
68807;BME280;55800;54.272;18.558;2023-05-16T11:34:30;100406.00;;;16.82;61.18
68807;BME280;55800;54.272;18.558;2023-05-16T11:37:00;100412.91;;;16.86;61.67
68807;BME280;55800;54.272;18.558;2023-05-16T11:39:30;100416.16;;;16.79;61.45
68807;BME280;55800;54.272;18.558;2023-05-16T11:41:59;100428.69;;;16.80;61.79
68807;BME280;55800;54.272;18.558;2023-05-16T11:44:30;100449.75;;;16.87;61.77
68807;BME280;55800;54.272;18.558;2023-05-16T11:46:59;100452.66;;;16.84;61.54
68807;BME280;55800;54.272;18.558;2023-05-16T11:49:29;100457.44;;;16.81;61.68
68807;BME280;55800;54.272;18.558;2023-05-16T11:51:58;100456.56;;;16.80;61.54
68807;BME280;55800;54.272;18.558;2023-05-16T11:54:27;100458.50;;;16.78;61.41
68807;BME280;55800;54.272;18.558;2023-05-16T11:56:56;100466.47;;;16.80;61.57
68807;BME280;55800;54.272;18.558;2023-05-16T11:59:25;100462.94;;;16.79;62.08
68807;BME280;55800;54.272;18.558;2023-05-16T12:01:56;100471.25;;;16.89;62.04
68807;BME280;55800;54.272;18.558;2023-05-16T12:04:25;100479.03;;;16.93;61.80
68807;BME280;55800;54.272;18.558;2023-05-16T12:06:57;100471.81;;;16.94;61.72
68807;BME280;55800;54.272;18.558;2023-05-16T12:09:26;100464.66;;;17.05;62.36
68807;BME280;55800;54.272;18.558;2023-05-16T12:11:55;100455.16;;;17.12;60.85
68807;BME280;55800;54.272;18.558;2023-05-16T12:14:24;100454.50;;;17.22;61.22
68807;BME280;55800;54.272;18.558;2023-05-16T12:16:55;100458.25;;;17.32;60.28
68807;BME280;55800;54.272;18.558;2023-05-16T12:19:24;100460.09;;;17.18;59.82
68807;BME280;55800;54.272;18.558;2023-05-16T12:21:54;100486.56;;;17.13;60.09
68807;BME280;55800;54.272;18.558;2023-05-16T12:24:28;100496.31;;;17.03;60.04
68807;BME280;55800;54.272;18.558;2023-05-16T12:26:57;100495.03;;;16.96;60.14
68807;BME280;55800;54.272;18.558;2023-05-16T12:29:26;100491.78;;;16.91;60.25
68807;BME280;55800;54.272;18.558;2023-05-16T12:31:57;100495.88;;;16.84;60.16
68807;BME280;55800;54.272;18.558;2023-05-16T12:34:28;100504.94;;;16.71;60.20
68807;BME280;55800;54.272;18.558;2023-05-16T12:36:58;100504.25;;;16.67;60.47
68807;BME280;55800;54.272;18.558;2023-05-16T12:39:35;100498.41;;;16.61;60.44
68807;BME280;55800;54.272;18.558;2023-05-16T12:42:05;100514.41;;;16.51;60.74
68807;BME280;55800;54.272;18.558;2023-05-16T12:44:35;100517.66;;;16.42;60.76
68807;BME280;55800;54.272;18.558;2023-05-16T12:47:06;100518.84;;;16.38;60.68
68807;BME280;55800;54.272;18.558;2023-05-16T12:49:43;100527.25;;;16.33;60.93
68807;BME280;55800;54.272;18.558;2023-05-16T12:52:16;100530.47;;;16.26;60.79
68807;BME280;55800;54.272;18.558;2023-05-16T12:54:47;100516.00;;;16.27;60.31
68807;BME280;55800;54.272;18.558;2023-05-16T12:57:16;100534.19;;;16.11;60.57
68807;BME280;55800;54.272;18.558;2023-05-16T12:59:46;100535.75;;;16.01;60.68
68807;BME280;55800;54.272;18.558;2023-05-16T13:02:17;100550.59;;;15.94;61.24
68807;BME280;55800;54.272;18.558;2023-05-16T13:04:49;100549.06;;;15.90;61.30